Terminal Aerodrome Forecast
Issued by NWS

Home | Current Version | Previous Version | Text Only | Print | Product List | Glossary On
Versions: 1 2 3 4 5 6 7 8 9 10 11 12 13 14 15 16 17 18 19 20 21 22 23 24 25 26 27
494
FTUS42 KTBW 231459 AAB
TAFPIE
TAF AMD
KPIE 231459Z 2315/2412 21007KT P6SM BKN025
      TEMPO 2315/2319 BKN009
     FM231900 25010KT P6SM VCSH BKN020 OVC040
     FM240000 33009KT P6SM SCT020 SCT050 BKN250
     FM240600 36009KT P6SM BKN250=

USA.gov is the U.S. government's official web portal to all federal, state and local government web resources and services.